createdAt,value
2023-04-18T00:02:05.557Z,100848.38
2023-04-18T00:04:33.079Z,100836.69
2023-04-18T00:07:00.865Z,100848.53
2023-04-18T00:09:29.640Z,100846.13
2023-04-18T00:11:57.363Z,100848.97
2023-04-18T00:14:24.727Z,100836.38
2023-04-18T00:16:52.452Z,100846.94
2023-04-18T00:19:19.849Z,100848.44
2023-04-18T00:21:47.492Z,100837.53
2023-04-18T00:24:15.031Z,100837.75
2023-04-18T00:26:44.312Z,100842.88
2023-04-18T00:29:11.787Z,100838.75
2023-04-18T00:31:39.669Z,100848.97
2023-04-18T00:34:07.080Z,100845.69
2023-04-18T00:36:34.871Z,100841.97
2023-04-18T00:39:02.158Z,100843.59
2023-04-18T00:41:30.572Z,100850.38
2023-04-18T00:43:59.692Z,100840.97
2023-04-18T00:46:27.436Z,100837.53
2023-04-18T00:48:54.871Z,100840.22
2023-04-18T00:51:22.592Z,100840.06
2023-04-18T00:53:50.452Z,100845.28
2023-04-18T00:56:18.206Z,100835.75
2023-04-18T00:58:45.681Z,100838.47
2023-04-18T01:01:17.108Z,100828.69
2023-04-18T01:06:12.179Z,100839.38
2023-04-18T01:08:39.830Z,100828.16
2023-04-18T01:11:07.700Z,100839.03
2023-04-18T01:13:35.232Z,100833.81
2023-04-18T01:16:04.901Z,100838.22
2023-04-18T01:18:33.713Z,100838.38
2023-04-18T01:21:02.513Z,100837.00
2023-04-18T01:23:30.164Z,100829.78
2023-04-18T01:25:59.570Z,100836.19
2023-04-18T01:28:26.811Z,100840.06
2023-04-18T01:30:56.858Z,100841.38
2023-04-18T01:33:24.267Z,100838.44
2023-04-18T01:36:19.345Z,100835.38
2023-04-18T01:38:46.518Z,100835.22
2023-04-18T01:41:15.581Z,100842.22
2023-04-18T01:43:42.975Z,100841.25
2023-04-18T01:46:10.618Z,100841.16
2023-04-18T01:48:38.023Z,100846.44
2023-04-18T01:51:05.864Z,100841.44
2023-04-18T01:53:33.279Z,100841.44
2023-04-18T01:56:00.957Z,100840.59
2023-04-18T01:58:29.664Z,100840.03
2023-04-18T02:00:57.436Z,100836.50
2023-04-18T02:03:25.270Z,100838.13
2023-04-18T02:05:53.163Z,100833.44
2023-04-18T02:08:20.591Z,100838.56
2023-04-18T02:10:48.309Z,100834.34
2023-04-18T02:13:15.669Z,100839.34
2023-04-18T02:15:45.437Z,100838.91
2023-04-18T02:18:12.935Z,100832.38
2023-04-18T02:20:40.534Z,100838.75
2023-04-18T02:23:07.890Z,100832.00
2023-04-18T02:25:35.965Z,100835.91
2023-04-18T02:28:03.477Z,100839.56
2023-04-18T02:30:31.459Z,100837.75
2023-04-18T02:33:00.276Z,100835.91
2023-04-18T02:35:29.688Z,100842.41
2023-04-18T02:37:56.972Z,100837.94
2023-04-18T02:40:24.522Z,100837.41
2023-04-18T02:42:51.898Z,100836.94
2023-04-18T02:45:19.693Z,100832.34
2023-04-18T02:47:54.287Z,100839.78
2023-04-18T02:50:25.282Z,100844.03
2023-04-18T02:52:52.679Z,100841.16
2023-04-18T02:55:20.506Z,100838.19
2023-04-18T02:57:47.694Z,100837.63
2023-04-18T03:00:15.663Z,100842.25
2023-04-18T03:02:43.069Z,100841.41
2023-04-18T03:05:12.526Z,100839.47
2023-04-18T03:07:41.436Z,100836.34
2023-04-18T03:10:09.930Z,100838.75
2023-04-18T03:12:37.277Z,100839.03
2023-04-18T03:15:06.589Z,100839.69
2023-04-18T03:17:34.177Z,100842.25
2023-04-18T03:20:01.974Z,100842.72
2023-04-18T03:22:29.237Z,100835.25
2023-04-18T03:24:58.470Z,100838.28
2023-04-18T03:27:25.798Z,100832.56
2023-04-18T03:29:53.871Z,100846.31
2023-04-18T03:32:21.500Z,100838.03
2023-04-18T03:34:49.398Z,100834.81
2023-04-18T03:37:16.870Z,100841.13
2023-04-18T03:39:44.515Z,100839.97
2023-04-18T03:42:13.307Z,100845.59
2023-04-18T03:44:40.912Z,100842.84
2023-04-18T03:47:08.297Z,100835.97
2023-04-18T03:49:35.893Z,100836.34
2023-04-18T03:52:03.181Z,100842.53
2023-04-18T03:54:30.690Z,100839.31
2023-04-18T03:56:58.118Z,100836.53
2023-04-18T03:59:27.930Z,100837.78
2023-04-18T04:01:55.420Z,100838.47
2023-04-18T04:04:23.310Z,100842.81
2023-04-18T04:06:51.178Z,100842.00
2023-04-18T04:09:19.073Z,100849.56
2023-04-18T04:11:46.572Z,100844.94
2023-04-18T04:14:14.533Z,100851.00
2023-04-18T04:16:43.479Z,100853.84
2023-04-18T04:19:11.310Z,100849.31
2023-04-18T04:21:41.180Z,100846.94
2023-04-18T04:24:08.885Z,100855.84
2023-04-18T04:26:36.163Z,100848.09
2023-04-18T04:29:06.409Z,100861.69
2023-04-18T04:31:33.757Z,100857.00
2023-04-18T04:34:02.995Z,100849.31
2023-04-18T04:36:30.396Z,100854.59
2023-04-18T04:38:58.042Z,100860.72
2023-04-18T04:41:25.529Z,100861.88
2023-04-18T04:43:53.155Z,100862.84
2023-04-18T04:46:20.818Z,100869.47
2023-04-18T04:48:48.712Z,100871.88
2023-04-18T04:51:17.328Z,100871.16
2023-04-18T04:53:44.985Z,100867.34
2023-04-18T04:56:12.222Z,100879.56
2023-04-18T04:58:40.036Z,100867.31
2023-04-18T05:01:07.288Z,100864.44
2023-04-18T05:03:35.389Z,100869.31
2023-04-18T05:06:03.491Z,100871.16
2023-04-18T05:08:32.434Z,100869.72
2023-04-18T05:10:59.708Z,100878.34
2023-04-18T05:13:27.356Z,100880.28
2023-04-18T05:15:54.757Z,100882.28
2023-04-18T05:18:22.526Z,100882.34
2023-04-18T05:20:49.866Z,100883.19
2023-04-18T05:23:17.456Z,100881.34
2023-04-18T05:25:46.285Z,100879.91
2023-04-18T05:28:13.888Z,100877.22
2023-04-18T05:30:41.288Z,100869.72
2023-04-18T05:33:09.055Z,100881.53
2023-04-18T05:35:36.611Z,100883.22
2023-04-18T05:38:04.331Z,100880.13
2023-04-18T05:40:31.606Z,100876.31
2023-04-18T05:43:00.649Z,100888.06
2023-04-18T05:45:28.016Z,100885.38
2023-04-18T05:47:58.640Z,100888.00
2023-04-18T05:50:26.038Z,100889.00
2023-04-18T05:52:53.744Z,100886.59
2023-04-18T05:55:21.251Z,100894.09
2023-04-18T05:57:48.908Z,100889.03
2023-04-18T06:00:18.675Z,100888.16
2023-04-18T06:02:46.849Z,100893.97
2023-04-18T06:05:14.513Z,100890.25
2023-04-18T06:07:42.771Z,100893.13
2023-04-18T06:10:10.173Z,100891.00
2023-04-18T06:12:37.815Z,100886.09
2023-04-18T06:15:06.725Z,100897.56
2023-04-18T06:17:35.943Z,100906.03
2023-04-18T06:20:03.802Z,100902.34
2023-04-18T06:22:31.395Z,100896.63
2023-04-18T06:24:58.719Z,100910.00
2023-04-18T06:27:31.387Z,100908.47
2023-04-18T06:29:59.156Z,100910.44
2023-04-18T06:32:26.834Z,100907.56
2023-04-18T06:34:55.502Z,100908.94
2023-04-18T06:37:26.270Z,100915.06
2023-04-18T06:39:53.474Z,100920.19
2023-04-18T06:42:22.579Z,100922.47
2023-04-18T06:44:50.237Z,100919.78
2023-04-18T06:47:18.130Z,100931.72
2023-04-18T06:49:45.479Z,100930.34
2023-04-18T06:52:14.716Z,100924.13
2023-04-18T06:54:41.967Z,100929.72
2023-04-18T06:57:09.815Z,100925.63
2023-04-18T06:59:37.273Z,100926.13
2023-04-18T07:02:05.213Z,100924.13
2023-04-18T07:04:35.115Z,100928.22
2023-04-18T07:07:03.092Z,100933.34
2023-04-18T07:09:31.794Z,100928.22
2023-04-18T07:11:59.521Z,100943.44
2023-04-18T07:14:26.970Z,100937.31
2023-04-18T07:16:54.803Z,100942.25
2023-04-18T07:19:22.176Z,100938.81
2023-04-18T07:21:50.041Z,100940.97
2023-04-18T07:24:17.378Z,100939.56
2023-04-18T07:26:46.525Z,100941.16
2023-04-18T07:29:13.708Z,100946.19
2023-04-18T07:31:41.664Z,100949.81
2023-04-18T07:34:08.995Z,100951.22
2023-04-18T07:36:36.924Z,100943.66
2023-04-18T07:39:04.226Z,100952.44
2023-04-18T07:41:31.874Z,100950.72
2023-04-18T07:44:00.685Z,100956.50
2023-04-18T07:46:28.757Z,100955.47
2023-04-18T07:48:56.114Z,100961.06
2023-04-18T07:51:23.613Z,100963.22
2023-04-18T07:53:50.948Z,100960.69
2023-04-18T07:56:19.273Z,100965.84
2023-04-18T07:58:46.611Z,100963.03
2023-04-18T08:01:15.813Z,100962.03
2023-04-18T08:03:43.196Z,100972.22
2023-04-18T08:06:11.000Z,100973.34
2023-04-18T08:08:38.310Z,100982.09
2023-04-18T08:11:06.283Z,100973.69
2023-04-18T08:13:33.535Z,100979.38
2023-04-18T08:16:01.105Z,100975.97
2023-04-18T08:18:29.782Z,100979.78
2023-04-18T08:20:57.640Z,100978.50
2023-04-18T08:23:24.995Z,100981.22
2023-04-18T08:25:52.644Z,100982.06
2023-04-18T08:28:19.966Z,100982.84
2023-04-18T08:30:47.731Z,100978.78
2023-04-18T08:33:15.191Z,100986.31
2023-04-18T08:35:44.206Z,100985.19
2023-04-18T08:38:11.501Z,100986.22
2023-04-18T08:40:39.117Z,100985.63
2023-04-18T08:43:07.672Z,100985.78
2023-04-18T08:45:37.689Z,100985.78
2023-04-18T08:48:05.513Z,100981.41
2023-04-18T08:50:33.510Z,100988.78
2023-04-18T08:53:02.361Z,100987.41
2023-04-18T08:55:30.011Z,100995.38
2023-04-18T08:57:57.386Z,101000.00
2023-04-18T09:00:25.353Z,100998.41
2023-04-18T09:02:53.886Z,100999.56
2023-04-18T09:05:21.992Z,101003.69
2023-04-18T09:07:50.578Z,101002.09
2023-04-18T09:10:28.583Z,101004.34
2023-04-18T09:12:57.104Z,100999.47
2023-04-18T09:15:26.275Z,101004.47
2023-04-18T09:17:54.646Z,100994.56
2023-04-18T09:20:30.939Z,101007.56
2023-04-18T09:22:58.225Z,101002.25
2023-04-18T09:25:29.434Z,100995.72
2023-04-18T09:27:56.929Z,100996.31
2023-04-18T09:30:37.091Z,100995.72
2023-04-18T09:33:06.548Z,100991.72
2023-04-18T09:35:34.209Z,101002.72
2023-04-18T09:38:01.943Z,100999.41
2023-04-18T09:40:31.802Z,101001.94
2023-04-18T09:42:59.240Z,100995.16
2023-04-18T09:45:27.502Z,101006.09
2023-04-18T09:47:55.232Z,100999.41
2023-04-18T09:50:23.102Z,100995.78
2023-04-18T09:52:50.506Z,101007.38
2023-04-18T09:55:19.497Z,100999.41
2023-04-18T09:57:48.937Z,100999.78
2023-04-18T10:00:22.349Z,100994.53
2023-04-18T10:02:57.862Z,100994.13
2023-04-18T10:05:27.350Z,101004.84
2023-04-18T10:07:55.225Z,101001.75
2023-04-18T10:10:23.627Z,100995.22
2023-04-18T10:12:54.862Z,100997.88
2023-04-18T10:15:24.426Z,101006.63
2023-04-18T10:18:03.373Z,101003.22
2023-04-18T10:20:33.638Z,101005.38
2023-04-18T10:23:41.814Z,100997.81
2023-04-18T10:26:11.972Z,100996.56
2023-04-18T10:28:53.963Z,100998.13
2023-04-18T10:31:22.899Z,100998.03
2023-04-18T10:34:03.969Z,100995.53
2023-04-18T10:36:34.780Z,100989.41
2023-04-18T10:39:19.491Z,100993.28
2023-04-18T10:41:50.752Z,100996.25
2023-04-18T10:44:23.361Z,100994.56
2023-04-18T10:47:20.180Z,100986.47
2023-04-18T10:50:00.737Z,100989.16
2023-04-18T10:52:28.607Z,100995.25
2023-04-18T10:55:05.663Z,100985.41
2023-04-18T10:57:41.790Z,100984.53
2023-04-18T11:00:16.536Z,100984.75
2023-04-18T11:02:52.785Z,100993.13
2023-04-18T11:05:22.942Z,100985.00
2023-04-18T11:07:53.484Z,100988.28
2023-04-18T11:10:23.468Z,100984.28
2023-04-18T11:12:52.596Z,100990.53
2023-04-18T11:15:23.592Z,100981.38
2023-04-18T11:17:59.764Z,100987.94
2023-04-18T11:20:27.765Z,100978.44
2023-04-18T11:22:57.021Z,100975.97
2023-04-18T11:25:26.644Z,100976.34
2023-04-18T11:27:54.835Z,100981.38
2023-04-18T11:30:23.714Z,100978.69
2023-04-18T11:32:53.361Z,100973.69
2023-04-18T11:35:20.609Z,100967.97
2023-04-18T11:37:49.926Z,100971.88
2023-04-18T11:40:36.394Z,100969.19
2023-04-18T11:43:27.106Z,100970.69
2023-04-18T11:46:37.492Z,100972.75
2023-04-18T11:49:05.057Z,100973.91
2023-04-18T11:51:35.013Z,100979.00
2023-04-18T11:54:04.305Z,100976.63
2023-04-18T11:56:33.501Z,100971.38
2023-04-18T11:59:09.008Z,100973.19
2023-04-18T12:01:38.325Z,100977.63
2023-04-18T12:04:07.296Z,100976.94
2023-04-18T12:06:47.951Z,100974.00
2023-04-18T12:09:15.850Z,100968.78
2023-04-18T12:11:43.922Z,100970.47
2023-04-18T12:14:19.902Z,100970.75
2023-04-18T12:16:51.045Z,100974.44
2023-04-18T12:19:18.823Z,100970.94
2023-04-18T12:21:59.681Z,100974.53
2023-04-18T12:24:27.342Z,100976.03
2023-04-18T12:26:55.578Z,100977.88
2023-04-18T12:29:22.870Z,100975.25
2023-04-18T12:31:52.175Z,100979.00
2023-04-18T12:34:19.660Z,100979.50
2023-04-18T12:36:47.361Z,100980.00
2023-04-18T12:39:14.739Z,100979.00
2023-04-18T12:41:43.457Z,100978.84
2023-04-18T12:44:10.824Z,100986.94
2023-04-18T12:46:38.569Z,100988.25
2023-04-18T12:49:08.356Z,100978.44
2023-04-18T12:51:35.988Z,100987.88
2023-04-18T12:54:03.480Z,100980.75
2023-04-18T12:56:31.112Z,100980.63
2023-04-18T12:58:58.609Z,100978.94
2023-04-18T13:01:26.651Z,100977.25
2023-04-18T13:04:08.371Z,100983.19
2023-04-18T13:06:41.506Z,100976.31
2023-04-18T13:09:08.916Z,100977.53
2023-04-18T13:11:36.657Z,100974.03
2023-04-18T13:14:04.007Z,100973.00
2023-04-18T13:16:31.707Z,100966.09
2023-04-18T13:18:59.088Z,100964.56
2023-04-18T13:21:26.690Z,100964.78
2023-04-18T13:23:55.633Z,100963.28
2023-04-18T13:26:23.532Z,100969.19
2023-04-18T13:28:50.863Z,100954.50
2023-04-18T13:31:18.910Z,100956.69
2023-04-18T13:33:46.138Z,100961.78
2023-04-18T13:36:13.996Z,100958.41
2023-04-18T13:38:41.847Z,100961.25
2023-04-18T13:41:13.238Z,100954.78
2023-04-18T13:43:40.891Z,100964.88
2023-04-18T13:46:08.564Z,100959.09
2023-04-18T13:48:35.997Z,100962.16
2023-04-18T13:51:03.759Z,100964.13
2023-04-18T13:53:31.302Z,100957.91
2023-04-18T13:55:59.119Z,100969.25
2023-04-18T13:58:28.073Z,100967.94
2023-04-18T14:00:55.778Z,100965.53
2023-04-18T14:03:26.372Z,100962.72
2023-04-18T14:05:54.197Z,100964.75
2023-04-18T14:08:21.828Z,100964.31
2023-04-18T14:10:49.908Z,100962.94
2023-04-18T14:13:17.372Z,100965.13
2023-04-18T14:15:46.409Z,100954.34
2023-04-18T14:18:13.832Z,100968.19
2023-04-18T14:20:41.514Z,100972.38
2023-04-18T14:23:08.815Z,100971.53
2023-04-18T14:25:36.690Z,100954.78
2023-04-18T14:28:06.221Z,100965.91
2023-04-18T14:30:33.805Z,100965.72
2023-04-18T14:33:03.308Z,100964.50
2023-04-18T14:35:30.889Z,100963.00
2023-04-18T14:37:58.427Z,100960.00
2023-04-18T14:40:27.166Z,100961.69
2023-04-18T14:42:54.760Z,100955.75
2023-04-18T14:45:22.467Z,100953.16
2023-04-18T14:47:49.737Z,100954.88
2023-04-18T14:50:19.141Z,100962.53
2023-04-18T14:52:46.488Z,100963.19
2023-04-18T14:55:14.160Z,100957.41
2023-04-18T14:57:41.480Z,100953.97
2023-04-18T15:00:09.924Z,100951.25
2023-04-18T15:02:37.512Z,100948.06
2023-04-18T15:05:06.302Z,100946.44
2023-04-18T15:07:35.265Z,100945.31
2023-04-18T15:10:02.914Z,100942.59
2023-04-18T15:12:30.130Z,100943.97
2023-04-18T15:14:59.490Z,100949.38
2023-04-18T15:17:26.865Z,100943.31
2023-04-18T15:19:54.615Z,100941.50
2023-04-18T15:22:22.110Z,100933.88
2023-04-18T15:24:51.139Z,100941.25
2023-04-18T15:27:18.405Z,100949.56
2023-04-18T15:29:46.169Z,100941.13
2023-04-18T15:32:13.598Z,100944.66
2023-04-18T15:34:41.364Z,100947.53
2023-04-18T15:37:08.828Z,100940.78
2023-04-18T15:39:36.637Z,100941.75
2023-04-18T15:42:06.338Z,100945.25
2023-04-18T15:44:34.000Z,100944.94
2023-04-18T15:47:01.545Z,100946.72
2023-04-18T15:49:29.115Z,100947.13
2023-04-18T15:51:56.456Z,100945.97
2023-04-18T15:54:24.097Z,100946.38
2023-04-18T15:56:51.431Z,100950.38
2023-04-18T15:59:20.506Z,100947.25
2023-04-18T16:01:47.815Z,100955.94
2023-04-18T16:04:16.230Z,100946.31
2023-04-18T16:06:43.689Z,100954.72
2023-04-18T16:09:11.255Z,100949.72
2023-04-18T16:11:38.488Z,100949.47
2023-04-18T16:14:06.187Z,100952.00
2023-04-18T16:16:34.948Z,100947.34
2023-04-18T16:19:02.526Z,100951.53
2023-04-18T16:21:29.901Z,100945.34
2023-04-18T16:23:58.523Z,100944.91
2023-04-18T16:26:25.977Z,100942.16
2023-04-18T16:28:53.497Z,100940.44
2023-04-18T16:31:20.843Z,100938.63
2023-04-18T16:33:50.053Z,100944.13
2023-04-18T16:36:17.403Z,100941.66
2023-04-18T16:38:45.178Z,100944.13
2023-04-18T16:41:12.573Z,100940.28
2023-04-18T16:43:40.309Z,100951.44
2023-04-18T16:46:11.374Z,100940.56
2023-04-18T16:48:39.149Z,100941.81
2023-04-18T16:51:09.187Z,100949.75
2023-04-18T16:53:36.906Z,100949.22
2023-04-18T16:56:04.636Z,100953.94
2023-04-18T16:58:32.259Z,100948.53
2023-04-18T17:01:02.230Z,100954.25
2023-04-18T17:03:30.473Z,100956.28
2023-04-18T17:05:58.013Z,100946.84
2023-04-18T17:08:27.223Z,100949.91
2023-04-18T17:10:55.060Z,100939.97
2023-04-18T17:13:22.786Z,100942.69
2023-04-18T17:15:50.520Z,100942.34
2023-04-18T17:18:18.626Z,100942.19
2023-04-18T17:20:45.854Z,100954.16
2023-04-18T17:23:13.608Z,100942.84
2023-04-18T17:25:42.267Z,100945.34
2023-04-18T17:28:10.297Z,100951.25
2023-04-18T17:30:40.066Z,100953.28
2023-04-18T17:33:08.273Z,100953.59
2023-04-18T17:35:35.603Z,100944.47
2023-04-18T17:38:03.656Z,100949.91
2023-04-18T17:40:31.837Z,100951.91
2023-04-18T17:43:01.192Z,100950.59
2023-04-18T17:45:28.440Z,100957.16
2023-04-18T17:47:56.197Z,100949.56
2023-04-18T17:50:23.701Z,100947.91
2023-04-18T17:52:51.561Z,100952.47
2023-04-18T17:55:19.041Z,100950.63
2023-04-18T17:57:46.881Z,100950.31
2023-04-18T18:00:16.778Z,100953.94
2023-04-18T18:02:44.816Z,100956.09
2023-04-18T18:05:12.219Z,100962.88
2023-04-18T18:07:40.378Z,100961.22
2023-04-18T18:10:09.643Z,100955.81
2023-04-18T18:12:37.300Z,100963.59
2023-04-18T18:15:05.791Z,100960.75
2023-04-18T18:17:35.303Z,100958.22
2023-04-18T18:20:02.691Z,100963.63
2023-04-18T18:22:30.551Z,100956.69
2023-04-18T18:24:58.099Z,100959.38
2023-04-18T18:27:26.138Z,100952.78
2023-04-18T18:29:53.547Z,100956.66
2023-04-18T18:32:21.164Z,100960.41
2023-04-18T18:34:49.940Z,100953.81
2023-04-18T18:37:17.662Z,100956.72
2023-04-18T18:39:44.910Z,100952.66
2023-04-18T18:42:12.662Z,100955.34
2023-04-18T18:44:39.934Z,100956.72
2023-04-18T18:47:07.908Z,100952.81
2023-04-18T18:49:35.864Z,100952.13
2023-04-18T18:52:05.319Z,100951.81
2023-04-18T18:54:32.701Z,100948.25
2023-04-18T18:57:00.787Z,100952.16
2023-04-18T18:59:28.044Z,100951.81
2023-04-18T19:01:56.406Z,100946.75
2023-04-18T19:04:25.141Z,100948.94
2023-04-18T19:06:53.306Z,100946.91
2023-04-18T19:09:22.468Z,100945.72
2023-04-18T19:11:50.080Z,100949.44
2023-04-18T19:14:17.414Z,100945.88
2023-04-18T19:16:45.251Z,100945.06
2023-04-18T19:19:13.238Z,100943.84
2023-04-18T19:21:41.459Z,100952.66
2023-04-18T19:24:08.992Z,100949.28
2023-04-18T19:26:38.320Z,100952.47
2023-04-18T19:29:06.605Z,100959.91
2023-04-18T19:31:34.679Z,100954.19
2023-04-18T19:34:02.193Z,100953.00
2023-04-18T19:36:30.079Z,100949.63
2023-04-18T19:38:57.361Z,100950.47
2023-04-18T19:41:28.544Z,100942.16
2023-04-18T19:43:57.748Z,100940.66
2023-04-18T19:46:25.570Z,100938.47
2023-04-18T19:48:53.181Z,100939.16
2023-04-18T19:51:20.977Z,100939.00
2023-04-18T19:53:48.578Z,100932.91
2023-04-18T19:56:16.196Z,100932.06
2023-04-18T19:58:43.684Z,100935.81
2023-04-18T20:01:14.067Z,100931.06
2023-04-18T20:03:44.581Z,100932.06
2023-04-18T20:06:13.113Z,100929.53
2023-04-18T20:08:41.414Z,100923.13
2023-04-18T20:11:10.447Z,100923.97
2023-04-18T20:13:38.000Z,100924.31
2023-04-18T20:16:07.478Z,100923.28
2023-04-18T20:18:38.057Z,100921.94
2023-04-18T20:21:07.132Z,100920.75
2023-04-18T20:23:34.650Z,100920.06
2023-04-18T20:26:02.735Z,100918.38
2023-04-18T20:28:30.475Z,100921.09
2023-04-18T20:30:58.228Z,100919.44
2023-04-18T20:33:25.885Z,100914.31
2023-04-18T20:35:55.384Z,100919.06
2023-04-18T20:38:23.665Z,100923.97
2023-04-18T20:40:53.083Z,100919.41
2023-04-18T20:43:20.591Z,100913.47
2023-04-18T20:45:48.750Z,100914.66
2023-04-18T20:48:16.155Z,100908.59
2023-04-18T20:50:43.830Z,100913.66
2023-04-18T20:53:12.579Z,100906.91
2023-04-18T20:55:40.147Z,100912.13
2023-04-18T20:58:07.646Z,100899.81
2023-04-18T21:00:35.500Z,100903.88
2023-04-18T21:03:03.090Z,100899.81
2023-04-18T21:05:32.554Z,100903.03
2023-04-18T21:07:59.845Z,100906.06
2023-04-18T21:10:29.419Z,100892.03
2023-04-18T21:12:56.722Z,100901.66
2023-04-18T21:15:24.771Z,100894.22
2023-04-18T21:17:52.333Z,100889.69
2023-04-18T21:20:20.431Z,100888.84
2023-04-18T21:22:47.672Z,100891.22
2023-04-18T21:25:15.569Z,100888.69
2023-04-18T21:27:44.256Z,100885.13
2023-04-18T21:30:12.973Z,100887.34
2023-04-18T21:32:40.514Z,100889.53
2023-04-18T21:35:09.134Z,100880.28
2023-04-18T21:37:36.581Z,100881.59
2023-04-18T21:40:05.568Z,100874.19
2023-04-18T21:42:33.014Z,100878.22
2023-04-18T21:45:02.188Z,100876.53
2023-04-18T21:47:29.899Z,100873.19
2023-04-18T21:49:57.794Z,100870.31
2023-04-18T21:52:25.285Z,100869.13
2023-04-18T21:54:53.197Z,100866.75
2023-04-18T21:57:20.549Z,100870.31
2023-04-18T21:59:48.744Z,100864.56
2023-04-18T22:02:17.600Z,100865.75
2023-04-18T22:04:45.359Z,100856.31
2023-04-18T22:07:12.752Z,100851.75
2023-04-18T22:09:40.550Z,100856.31
2023-04-18T22:12:08.262Z,100843.81
2023-04-18T22:14:36.177Z,100845.50
2023-04-18T22:17:03.512Z,100841.97
2023-04-18T22:19:33.084Z,100837.59
2023-04-18T22:22:00.607Z,100840.44
2023-04-18T22:24:28.385Z,100837.03
2023-04-18T22:26:55.952Z,100835.66
2023-04-18T22:29:23.630Z,100831.97
2023-04-18T22:31:51.101Z,100835.66
2023-04-18T22:34:19.169Z,100830.59
2023-04-18T22:36:48.019Z,100823.44
2023-04-18T22:39:16.051Z,100825.13
2023-04-18T22:41:43.242Z,100818.72
2023-04-18T22:44:10.850Z,100826.13
2023-04-18T22:46:38.573Z,100818.06
2023-04-18T22:49:06.545Z,100818.19
2023-04-18T22:51:33.958Z,100810.97
2023-04-18T22:54:03.387Z,100816.88
2023-04-18T22:56:30.785Z,100808.88
2023-04-18T22:58:58.537Z,100817.53
2023-04-18T23:01:25.819Z,100801.06
2023-04-18T23:03:53.967Z,100809.28
2023-04-18T23:06:21.496Z,100812.09
2023-04-18T23:08:50.143Z,100804.16
2023-04-18T23:11:18.852Z,100802.63
2023-04-18T23:13:46.629Z,100807.47
2023-04-18T23:16:14.435Z,100804.47
2023-04-18T23:18:47.797Z,100797.72
2023-04-18T23:21:21.095Z,100798.47
2023-04-18T23:23:54.556Z,100792.25
2023-04-18T23:26:24.524Z,100787.63
2023-04-18T23:28:52.552Z,100787.03
2023-04-18T23:31:19.891Z,100782.41
2023-04-18T23:33:47.619Z,100783.94
2023-04-18T23:36:14.857Z,100778.22
2023-04-18T23:38:42.793Z,100771.09
2023-04-18T23:41:10.100Z,100765.88
2023-04-18T23:43:39.443Z,100767.50
2023-04-18T23:46:06.742Z,100767.22
2023-04-18T23:48:34.353Z,100764.63
2023-04-18T23:51:01.642Z,100764.66
2023-04-18T23:53:29.340Z,100763.69
2023-04-18T23:55:56.745Z,100759.56
2023-04-18T23:58:24.700Z,100757.47
